Accueil
METAR-TAF:

METAR-TAF

Aéroports :

Arnhem, Pays-Bas

latitude: 52-04N, longitude: 005-53E, altitude: 48 m

Observation

Le bulletin a été fait il y a 15 minutes, à 06:55 UTC
Vent 7 kt de est, variant entre est/nord-est et sud
Température 2°C
Humidité 100%
Pression 1027 hPa
Visibilité: 2700 m
Ciel couvert à une hauteur de 400 ft
brume

METAR: EHDL 160655Z AUTO 10007KT 070V190 2700 BR OVC004 02/02 Q1027 YLO

Heure: 08:10 (07:10 UTC)

Prévision

Le bulletin a été fait il y a 14 heures et 5 minutes, à 17:05 UTC
Prévision valable du 15 à 18 UTC au 16 à 06 UTC
Vent 4 kt de est/sud-est
Visibilité 10 km ou plus
pas de nuages en-dessous de 1500 mètres et pas de cumulonimbus.
Evoluant progressivement
du 15 à 23 UTC au 16 à 01 UTC
Visibilité: 3500 m
brume
Evoluant progressivement
du 16 à 01 UTC au 16 à 03 UTC
Visibilité: 1800 m
brume

TAF: EHDL 151705Z 1518/1606 12004KT CAVOK BECMG 1523/1601 3500 BR BECMG 1601/1603 1800 BR

Observations et prévisions météorologiques de plus de 4000 aéroports (messages METAR et TAF).

Les stations disponibles sont représentées par des disques jaunes et rouges sur la carte.

Passer la souris dessus pour voir le nom de la station.

Cliquer dessus pour voir les observations et prévisions météorologiques.

Pour changer de carte: cliquez sur les boutons verts avec une croix noire pour zoomer, sur le bouton vert avec un tiret pour effectuer un zoom arrière, ou sur les flèches vertes pour les cartes adjacentes.


METAR-TAF: